SVA921 OEJN-EDDF
Flight info
| Callsign | SVA921 |
|---|---|
| Flight time | N/A |
| Altitude | 36000 |
| Route | MIGDA L677 CVO L617 NABSI M872 METRU DCT TIGRA/N0471F380 DCT GARGA DCT RESIA DCT ARGAX DCT LADOL T163 EMPAX EMPAX5A |
| Aircraft | B77L/H-SDE1E2E3FGHIJ2J3J4J5M1RWXY/LB1D1 |
Departure
| Time | 2026-05-05 16:14 |
|---|---|
| Airport | King Abdulaziz International Airport (OEJN) |
Arrival
| Time | N/A |
|---|---|
| Airport | Frankfurt Main Airport (EDDF) |
| Time | Latitude | Longitude | Altitude | Speed | Heading |
|---|---|---|---|---|---|
| 2026-05-05 15:55 | 21.66014 | 39.16069 | 39 ft | 0 kts | 250° |
| 2026-05-05 16:07 | 21.66015 | 39.16070 | 40 ft | 2 kts | 250° |
| 2026-05-05 16:08 | 21.66023 | 39.16096 | 40 ft | 4 kts | 258° |
| 2026-05-05 16:08 | 21.66025 | 39.16107 | 40 ft | 4 kts | 262° |
| 2026-05-05 16:08 | 21.66027 | 39.16136 | 40 ft | 4 kts | 271° |
| 2026-05-05 16:08 | 21.66024 | 39.16165 | 39 ft | 4 kts | 282° |
| 2026-05-05 16:09 | 21.66017 | 39.16192 | 37 ft | 4 kts | 295° |
| 2026-05-05 16:09 | 21.66003 | 39.16216 | 39 ft | 4 kts | 312° |
| 2026-05-05 16:09 | 21.65983 | 39.16234 | 37 ft | 3 kts | 338° |
| 2026-05-05 16:09 | 21.65980 | 39.16235 | 37 ft | 2 kts | 341° |
| 2026-05-05 16:11 | 21.66027 | 39.16230 | 38 ft | 6 kts | 17° |
| 2026-05-05 16:12 | 21.66059 | 39.16262 | 40 ft | 7 kts | 59° |
| 2026-05-05 16:12 | 21.66097 | 39.16363 | 39 ft | 14 kts | 70° |
| 2026-05-05 16:13 | 21.66297 | 39.16416 | 38 ft | 23 kts | 340° |
| 2026-05-05 16:13 | 21.66640 | 39.16280 | 40 ft | 87 kts | 340° |
| 2026-05-05 16:13 | 21.67401 | 39.15974 | 38 ft | 147 kts | 338° |
| 2026-05-05 16:14 | 21.69440 | 39.15161 | 1125 ft | 162 kts | 341° |
| 2026-05-05 16:14 | 21.71569 | 39.14287 | 2286 ft | 181 kts | 341° |
| 2026-05-05 16:15 | 21.74271 | 39.13245 | 2899 ft | 228 kts | 341° |
| 2026-05-05 16:15 | 21.77439 | 39.12009 | 4180 ft | 251 kts | 339° |
| 2026-05-05 16:16 | 21.80798 | 39.10688 | 5608 ft | 262 kts | 338° |
| 2026-05-05 16:16 | 21.84329 | 39.09295 | 6625 ft | 277 kts | 337° |
| 2026-05-05 16:17 | 21.87980 | 39.07855 | 8096 ft | 288 kts | 336° |
| 2026-05-05 16:17 | 21.89875 | 39.07101 | 8852 ft | 292 kts | 337° |
| 2026-05-05 16:18 | 21.93655 | 39.05313 | 10231 ft | 305 kts | 332° |
| 2026-05-05 16:18 | 21.95657 | 39.04337 | 10491 ft | 328 kts | 332° |
| 2026-05-05 16:18 | 22.00145 | 39.02174 | 10885 ft | 377 kts | 333° |
| 2026-05-05 16:19 | 22.02583 | 39.01012 | 11450 ft | 388 kts | 333° |
| 2026-05-05 16:19 | 22.04954 | 38.99881 | 12155 ft | 394 kts | 333° |
| 2026-05-05 16:19 | 22.10022 | 38.97458 | 13773 ft | 403 kts | 333° |
| 2026-05-05 16:20 | 22.15170 | 38.94993 | 15171 ft | 412 kts | 332° |
| 2026-05-05 16:20 | 22.20484 | 38.92451 | 16606 ft | 421 kts | 333° |
| 2026-05-05 16:21 | 22.25900 | 38.89863 | 17979 ft | 431 kts | 332° |
| 2026-05-05 16:22 | 22.34177 | 38.85896 | 19893 ft | 439 kts | 332° |
| 2026-05-05 16:22 | 22.39823 | 38.83183 | 20988 ft | 448 kts | 332° |
| 2026-05-05 16:23 | 22.45567 | 38.80422 | 22121 ft | 455 kts | 332° |
| 2026-05-05 16:23 | 22.48438 | 38.79042 | 22659 ft | 459 kts | 332° |
| 2026-05-05 16:23 | 22.54329 | 38.76207 | 23658 ft | 467 kts | 331° |
| 2026-05-05 16:24 | 22.57315 | 38.74770 | 24105 ft | 470 kts | 331° |
| 2026-05-05 16:24 | 22.60310 | 38.73327 | 24572 ft | 473 kts | 330° |
| 2026-05-05 16:24 | 22.66372 | 38.70434 | 25491 ft | 479 kts | 331° |
| 2026-05-05 16:25 | 22.69463 | 38.69043 | 25927 ft | 483 kts | 332° |
| 2026-05-05 16:25 | 22.75737 | 38.66296 | 26800 ft | 489 kts | 332° |
| 2026-05-05 16:25 | 22.78896 | 38.64914 | 27262 ft | 491 kts | 332° |
| 2026-05-05 16:26 | 22.85262 | 38.62106 | 28116 ft | 496 kts | 331° |
| 2026-05-05 16:26 | 22.91644 | 38.59269 | 28937 ft | 501 kts | 330° |
| 2026-05-05 16:27 | 22.94918 | 38.57810 | 29324 ft | 503 kts | 330° |
| 2026-05-05 16:27 | 22.98123 | 38.56381 | 29682 ft | 506 kts | 330° |
| 2026-05-05 16:27 | 23.01376 | 38.54931 | 30064 ft | 507 kts | 330° |
| 2026-05-05 16:27 | 23.04635 | 38.53479 | 30498 ft | 506 kts | 330° |
| 2026-05-05 16:28 | 23.07902 | 38.52024 | 30953 ft | 504 kts | 330° |
| 2026-05-05 16:28 | 23.11143 | 38.50579 | 31378 ft | 503 kts | 330° |
| 2026-05-05 16:28 | 23.14387 | 38.49130 | 31778 ft | 503 kts | 329° |
| 2026-05-05 16:28 | 23.17620 | 38.47686 | 32217 ft | 502 kts | 329° |
| 2026-05-05 16:29 | 23.20849 | 38.46243 | 32726 ft | 500 kts | 329° |
| 2026-05-05 16:29 | 23.24060 | 38.44808 | 33146 ft | 499 kts | 329° |
| 2026-05-05 16:29 | 23.27228 | 38.43389 | 33505 ft | 499 kts | 329° |
| 2026-05-05 16:29 | 23.30443 | 38.41947 | 33868 ft | 499 kts | 329° |
| 2026-05-05 16:30 | 23.33645 | 38.40512 | 34187 ft | 499 kts | 329° |
| 2026-05-05 16:30 | 23.36857 | 38.39072 | 34534 ft | 498 kts | 329° |
| 2026-05-05 16:30 | 23.40061 | 38.37636 | 34863 ft | 497 kts | 329° |
| 2026-05-05 16:30 | 23.43257 | 38.36201 | 35174 ft | 496 kts | 329° |
| 2026-05-05 16:31 | 23.46453 | 38.34766 | 35500 ft | 496 kts | 328° |
| 2026-05-05 16:31 | 23.49628 | 38.33340 | 35855 ft | 494 kts | 328° |
| 2026-05-05 16:31 | 23.56009 | 38.30468 | 35894 ft | 496 kts | 328° |
| 2026-05-05 16:32 | 23.62363 | 38.27611 | 35880 ft | 492 kts | 328° |
| 2026-05-05 16:32 | 23.68681 | 38.24769 | 35881 ft | 491 kts | 328° |
| 2026-05-05 16:33 | 23.74991 | 38.21938 | 35910 ft | 490 kts | 328° |
| 2026-05-05 16:33 | 23.81269 | 38.19117 | 35889 ft | 490 kts | 328° |
| 2026-05-05 16:34 | 23.87579 | 38.16277 | 35874 ft | 490 kts | 328° |
| 2026-05-05 16:34 | 23.93889 | 38.13435 | 35822 ft | 490 kts | 328° |
| 2026-05-05 16:35 | 24.00191 | 38.10592 | 35797 ft | 490 kts | 328° |
| 2026-05-05 16:35 | 24.06507 | 38.07740 | 35780 ft | 491 kts | 328° |
| 2026-05-05 16:36 | 24.12815 | 38.04875 | 35779 ft | 489 kts | 326° |
| 2026-05-05 16:36 | 24.18612 | 38.01336 | 35776 ft | 473 kts | 316° |
| 2026-05-05 16:37 | 24.23887 | 37.97330 | 35780 ft | 473 kts | 315° |
| 2026-05-05 16:37 | 24.29288 | 37.93209 | 35794 ft | 473 kts | 315° |
| 2026-05-05 16:38 | 24.34714 | 37.89106 | 35843 ft | 474 kts | 315° |
| 2026-05-05 16:38 | 24.40154 | 37.85012 | 35818 ft | 474 kts | 315° |
| 2026-05-05 16:39 | 24.45594 | 37.80920 | 35826 ft | 473 kts | 315° |
| 2026-05-05 16:39 | 24.50981 | 37.76861 | 35847 ft | 472 kts | 315° |
| 2026-05-05 16:40 | 24.56403 | 37.72768 | 35838 ft | 473 kts | 315° |
| 2026-05-05 16:40 | 24.61833 | 37.68666 | 35876 ft | 472 kts | 315° |
| 2026-05-05 16:41 | 24.67234 | 37.64582 | 35900 ft | 471 kts | 315° |
| 2026-05-05 16:41 | 24.72646 | 37.60484 | 35884 ft | 471 kts | 315° |
| 2026-05-05 16:42 | 24.78041 | 37.56394 | 35895 ft | 471 kts | 315° |
| 2026-05-05 16:42 | 24.83439 | 37.52296 | 35901 ft | 471 kts | 315° |
| 2026-05-05 16:43 | 24.88800 | 37.48224 | 35905 ft | 471 kts | 315° |
| 2026-05-05 16:43 | 24.94187 | 37.44129 | 35911 ft | 470 kts | 315° |
| 2026-05-05 16:44 | 24.99569 | 37.40033 | 35944 ft | 470 kts | 315° |
| 2026-05-05 16:44 | 25.04944 | 37.35936 | 35927 ft | 470 kts | 315° |
| 2026-05-05 16:45 | 25.10325 | 37.31830 | 35924 ft | 470 kts | 315° |
| 2026-05-05 16:45 | 25.15714 | 37.27714 | 35933 ft | 470 kts | 315° |
| 2026-05-05 16:46 | 25.21086 | 37.23606 | 35931 ft | 471 kts | 315° |
| 2026-05-05 16:46 | 25.26488 | 37.19471 | 35941 ft | 471 kts | 315° |
| 2026-05-05 16:47 | 25.31837 | 37.15368 | 35917 ft | 471 kts | 315° |
| 2026-05-05 16:47 | 25.37228 | 37.11226 | 35932 ft | 472 kts | 315° |
| 2026-05-05 16:48 | 25.42625 | 37.07081 | 35920 ft | 472 kts | 315° |
| 2026-05-05 16:48 | 25.48030 | 37.02942 | 35925 ft | 472 kts | 315° |
| 2026-05-05 16:49 | 25.53311 | 36.98894 | 35927 ft | 472 kts | 315° |
| 2026-05-05 16:49 | 25.58716 | 36.94742 | 35922 ft | 473 kts | 315° |
| 2026-05-05 16:50 | 25.64126 | 36.90581 | 35919 ft | 473 kts | 315° |
| 2026-05-05 16:50 | 25.69508 | 36.86436 | 35921 ft | 474 kts | 315° |
| 2026-05-05 16:51 | 25.74927 | 36.82254 | 35917 ft | 475 kts | 315° |
| 2026-05-05 16:51 | 25.80343 | 36.78055 | 35919 ft | 475 kts | 315° |
| 2026-05-05 16:52 | 25.85766 | 36.73843 | 35940 ft | 476 kts | 315° |
| 2026-05-05 16:52 | 25.91194 | 36.69625 | 35925 ft | 476 kts | 315° |
| 2026-05-05 16:53 | 25.96615 | 36.65408 | 35943 ft | 476 kts | 315° |
| 2026-05-05 16:53 | 26.02015 | 36.61202 | 35927 ft | 476 kts | 315° |
| 2026-05-05 16:54 | 26.07431 | 36.56979 | 35929 ft | 475 kts | 315° |
| 2026-05-05 16:54 | 26.12850 | 36.52749 | 35901 ft | 475 kts | 315° |
| 2026-05-05 16:55 | 26.18150 | 36.48409 | 35908 ft | 468 kts | 310° |
| 2026-05-05 16:55 | 26.22718 | 36.43391 | 35904 ft | 459 kts | 304° |
| 2026-05-05 16:56 | 26.27094 | 36.38279 | 35924 ft | 459 kts | 304° |
| 2026-05-05 16:56 | 26.31518 | 36.33139 | 35926 ft | 460 kts | 304° |
| 2026-05-05 16:57 | 26.35961 | 36.28005 | 35920 ft | 460 kts | 304° |
| 2026-05-05 16:57 | 26.39665 | 36.23732 | 35936 ft | 460 kts | 304° |
| 2026-05-05 16:58 | 26.44120 | 36.18584 | 35923 ft | 460 kts | 304° |
| 2026-05-05 16:58 | 26.48567 | 36.13439 | 35923 ft | 460 kts | 304° |
| 2026-05-05 16:59 | 26.53010 | 36.08291 | 35923 ft | 460 kts | 304° |
| 2026-05-05 16:59 | 26.57453 | 36.03137 | 35926 ft | 460 kts | 304° |
| 2026-05-05 17:00 | 26.61785 | 35.98106 | 35931 ft | 460 kts | 304° |
| 2026-05-05 17:00 | 26.66198 | 35.92974 | 35961 ft | 460 kts | 304° |
| 2026-05-05 17:01 | 26.70635 | 35.87807 | 35937 ft | 461 kts | 304° |
| 2026-05-05 17:01 | 26.75072 | 35.82635 | 35930 ft | 461 kts | 304° |
| 2026-05-05 17:02 | 26.79511 | 35.77456 | 35932 ft | 460 kts | 304° |
| 2026-05-05 17:02 | 26.83949 | 35.72274 | 35937 ft | 460 kts | 304° |
| 2026-05-05 17:03 | 26.88379 | 35.67093 | 35936 ft | 460 kts | 304° |
| 2026-05-05 17:03 | 26.92810 | 35.61904 | 35934 ft | 460 kts | 304° |
| 2026-05-05 17:04 | 26.97208 | 35.56747 | 35934 ft | 460 kts | 304° |
| 2026-05-05 17:04 | 27.01620 | 35.51568 | 35936 ft | 460 kts | 304° |
| 2026-05-05 17:05 | 27.06034 | 35.46379 | 35950 ft | 460 kts | 305° |
| 2026-05-05 17:05 | 27.10454 | 35.41178 | 35932 ft | 460 kts | 305° |
| 2026-05-05 17:06 | 27.14867 | 35.35979 | 35949 ft | 459 kts | 305° |
| 2026-05-05 17:06 | 27.19271 | 35.30784 | 35950 ft | 459 kts | 305° |
| 2026-05-05 17:07 | 27.23672 | 35.25585 | 35934 ft | 459 kts | 305° |
| 2026-05-05 17:07 | 27.28072 | 35.20381 | 35935 ft | 459 kts | 305° |
| 2026-05-05 17:08 | 27.32465 | 35.15180 | 35939 ft | 459 kts | 305° |
| 2026-05-05 17:08 | 27.36855 | 35.09974 | 35939 ft | 458 kts | 305° |
| 2026-05-05 17:09 | 27.41216 | 35.04797 | 35977 ft | 458 kts | 305° |
| 2026-05-05 17:09 | 27.45506 | 34.99698 | 35950 ft | 459 kts | 305° |
| 2026-05-05 17:10 | 27.49893 | 34.94479 | 35946 ft | 458 kts | 305° |
| 2026-05-05 17:10 | 27.54435 | 34.89402 | 35941 ft | 461 kts | 308° |
| 2026-05-05 17:11 | 27.59137 | 34.84474 | 35938 ft | 461 kts | 309° |
| 2026-05-05 17:11 | 27.63832 | 34.79553 | 35939 ft | 460 kts | 309° |
| 2026-05-05 17:12 | 27.68504 | 34.74615 | 35939 ft | 460 kts | 308° |
| 2026-05-05 17:12 | 27.73173 | 34.69660 | 35943 ft | 460 kts | 309° |
| 2026-05-05 17:13 | 27.77839 | 34.64703 | 35967 ft | 460 kts | 309° |
| 2026-05-05 17:13 | 27.82504 | 34.59742 | 35960 ft | 460 kts | 309° |
| 2026-05-05 17:14 | 27.87133 | 34.54813 | 35958 ft | 460 kts | 309° |
| 2026-05-05 17:14 | 27.91789 | 34.49850 | 35966 ft | 460 kts | 309° |
| 2026-05-05 17:15 | 27.96442 | 34.44884 | 35973 ft | 460 kts | 309° |
| 2026-05-05 17:15 | 28.00954 | 34.39810 | 35972 ft | 453 kts | 303° |
| 2026-05-05 17:16 | 28.04937 | 34.34310 | 35956 ft | 452 kts | 302° |
| 2026-05-05 17:16 | 28.08888 | 34.28776 | 35974 ft | 452 kts | 302° |
| 2026-05-05 17:17 | 28.12860 | 34.23245 | 35982 ft | 453 kts | 302° |
| 2026-05-05 17:17 | 28.16852 | 34.17703 | 35997 ft | 454 kts | 303° |
| 2026-05-05 17:18 | 28.20819 | 34.12198 | 35986 ft | 454 kts | 302° |
| 2026-05-05 17:18 | 28.24809 | 34.06656 | 36007 ft | 454 kts | 302° |
| 2026-05-05 17:19 | 28.28796 | 34.01101 | 36003 ft | 452 kts | 302° |
| 2026-05-05 17:19 | 28.32654 | 33.95728 | 36000 ft | 452 kts | 303° |
| 2026-05-05 17:20 | 28.36618 | 33.90192 | 36023 ft | 452 kts | 302° |
| 2026-05-05 17:20 | 28.40590 | 33.84641 | 36025 ft | 452 kts | 302° |
| 2026-05-05 17:21 | 28.44557 | 33.79085 | 36023 ft | 452 kts | 302° |
| 2026-05-05 17:22 | 28.50490 | 33.70771 | 36010 ft | 450 kts | 302° |
| 2026-05-05 17:22 | 28.54424 | 33.65247 | 36060 ft | 450 kts | 302° |
| 2026-05-05 17:23 | 28.58358 | 33.59706 | 36028 ft | 449 kts | 302° |
| 2026-05-05 17:23 | 28.62278 | 33.54182 | 36035 ft | 448 kts | 302° |
| 2026-05-05 17:24 | 28.66190 | 33.48669 | 36035 ft | 447 kts | 302° |
| 2026-05-05 17:24 | 28.70100 | 33.43156 | 36031 ft | 447 kts | 302° |
| 2026-05-05 17:25 | 28.73981 | 33.37680 | 36027 ft | 447 kts | 302° |
| 2026-05-05 17:25 | 28.77878 | 33.32171 | 36032 ft | 446 kts | 302° |
| 2026-05-05 17:26 | 28.81771 | 33.26658 | 36038 ft | 447 kts | 302° |
| 2026-05-05 17:26 | 28.85669 | 33.21130 | 36033 ft | 447 kts | 302° |
| 2026-05-05 17:27 | 28.89570 | 33.15592 | 36041 ft | 448 kts | 303° |
| 2026-05-05 17:27 | 28.93469 | 33.10050 | 36039 ft | 448 kts | 302° |
| 2026-05-05 17:28 | 28.97367 | 33.04502 | 36035 ft | 448 kts | 302° |
| 2026-05-05 17:28 | 29.01165 | 32.99089 | 36035 ft | 448 kts | 302° |
| 2026-05-05 17:29 | 29.05058 | 32.93532 | 36037 ft | 448 kts | 302° |
| 2026-05-05 17:29 | 29.08949 | 32.87972 | 36047 ft | 448 kts | 302° |
| 2026-05-05 17:30 | 29.12811 | 32.82445 | 36040 ft | 448 kts | 302° |
| 2026-05-05 17:30 | 29.16723 | 32.76839 | 36038 ft | 448 kts | 302° |
| 2026-05-05 17:31 | 29.20579 | 32.71305 | 36038 ft | 448 kts | 302° |
| 2026-05-05 17:31 | 29.24458 | 32.65730 | 36040 ft | 448 kts | 302° |
| 2026-05-05 17:32 | 29.28337 | 32.60150 | 36061 ft | 447 kts | 302° |
| 2026-05-05 17:32 | 29.32194 | 32.54553 | 36035 ft | 447 kts | 302° |
| 2026-05-05 17:33 | 29.36026 | 32.48959 | 36042 ft | 445 kts | 302° |
| 2026-05-05 17:33 | 29.39850 | 32.43372 | 36051 ft | 445 kts | 302° |
| 2026-05-05 17:34 | 29.43669 | 32.37785 | 36044 ft | 444 kts | 302° |
| 2026-05-05 17:34 | 29.47475 | 32.32212 | 36058 ft | 444 kts | 302° |
| 2026-05-05 17:35 | 29.51260 | 32.26665 | 36059 ft | 443 kts | 302° |
| 2026-05-05 17:35 | 29.55064 | 32.21082 | 36055 ft | 443 kts | 302° |
| 2026-05-05 17:36 | 29.58863 | 32.15496 | 36059 ft | 443 kts | 302° |
| 2026-05-05 17:36 | 29.62657 | 32.09912 | 36061 ft | 443 kts | 302° |
| 2026-05-05 17:37 | 29.66445 | 32.04327 | 36071 ft | 443 kts | 302° |
| 2026-05-05 17:37 | 29.70157 | 31.98848 | 36061 ft | 443 kts | 302° |
| 2026-05-05 17:38 | 29.73943 | 31.93252 | 36061 ft | 443 kts | 302° |
| 2026-05-05 17:38 | 29.77732 | 31.87645 | 36076 ft | 444 kts | 303° |
| 2026-05-05 17:39 | 29.81426 | 31.82020 | 36070 ft | 442 kts | 301° |
| 2026-05-05 17:39 | 29.85065 | 31.76324 | 36079 ft | 441 kts | 301° |
| 2026-05-05 17:40 | 29.88707 | 31.70647 | 36068 ft | 440 kts | 302° |
| 2026-05-05 17:40 | 29.92349 | 31.64984 | 36071 ft | 439 kts | 302° |
| 2026-05-05 17:41 | 29.96002 | 31.59323 | 36072 ft | 439 kts | 302° |
| 2026-05-05 17:41 | 29.99647 | 31.53669 | 36075 ft | 439 kts | 302° |
| 2026-05-05 17:42 | 30.03280 | 31.48023 | 36070 ft | 439 kts | 302° |
| 2026-05-05 17:42 | 30.06307 | 31.43311 | 36084 ft | 439 kts | 302° |
| 2026-05-05 17:43 | 30.10148 | 31.37793 | 36083 ft | 443 kts | 308° |
| 2026-05-05 17:43 | 30.15401 | 31.32085 | 36097 ft | 447 kts | 312° |
| 2026-05-05 17:44 | 30.19973 | 31.27234 | 36077 ft | 446 kts | 311° |
| 2026-05-05 17:44 | 30.23767 | 31.23181 | 36073 ft | 445 kts | 311° |
| 2026-05-05 17:45 | 30.28307 | 31.18306 | 36071 ft | 444 kts | 311° |
| 2026-05-05 17:45 | 30.32830 | 31.13436 | 36075 ft | 443 kts | 311° |
| 2026-05-05 17:46 | 30.37339 | 31.08572 | 36076 ft | 443 kts | 311° |
| 2026-05-05 17:46 | 30.41845 | 31.03706 | 36079 ft | 442 kts | 311° |
| 2026-05-05 17:47 | 30.46242 | 30.98953 | 36081 ft | 442 kts | 311° |
| 2026-05-05 17:47 | 30.50745 | 30.94078 | 36120 ft | 442 kts | 311° |
| 2026-05-05 17:48 | 30.55246 | 30.89200 | 36093 ft | 442 kts | 311° |
| 2026-05-05 17:48 | 30.59735 | 30.84327 | 36085 ft | 442 kts | 311° |
| 2026-05-05 17:49 | 30.64217 | 30.79457 | 36089 ft | 441 kts | 311° |
| 2026-05-05 17:49 | 30.68693 | 30.74586 | 36088 ft | 440 kts | 311° |
| 2026-05-05 17:50 | 30.73130 | 30.69750 | 36092 ft | 440 kts | 311° |
| 2026-05-05 17:50 | 30.77604 | 30.64869 | 36092 ft | 440 kts | 311° |
| 2026-05-05 17:51 | 30.82070 | 30.59989 | 36093 ft | 440 kts | 311° |
| 2026-05-05 17:51 | 30.86536 | 30.55102 | 36101 ft | 440 kts | 311° |
| 2026-05-05 17:52 | 30.90971 | 30.50243 | 36097 ft | 440 kts | 311° |
| 2026-05-05 17:52 | 30.95428 | 30.45354 | 36098 ft | 440 kts | 311° |
| 2026-05-05 17:53 | 30.99884 | 30.40457 | 36097 ft | 440 kts | 311° |
| 2026-05-05 17:53 | 31.04329 | 30.35568 | 36098 ft | 439 kts | 311° |
| 2026-05-05 17:54 | 31.08236 | 30.30213 | 36103 ft | 430 kts | 298° |
| 2026-05-05 17:54 | 31.10966 | 30.24040 | 36089 ft | 426 kts | 287° |
| 2026-05-05 17:55 | 31.12744 | 30.17494 | 36096 ft | 425 kts | 285° |
| 2026-05-05 17:55 | 31.14498 | 30.10891 | 36119 ft | 426 kts | 285° |
| 2026-05-05 17:56 | 31.16297 | 30.04286 | 36104 ft | 427 kts | 286° |
| 2026-05-05 17:56 | 31.18214 | 29.97883 | 36104 ft | 429 kts | 292° |
| 2026-05-05 17:57 | 31.20990 | 29.91689 | 36103 ft | 432 kts | 298° |
| 2026-05-05 17:57 | 31.24451 | 29.85914 | 36108 ft | 434 kts | 302° |
| 2026-05-05 17:58 | 31.28046 | 29.80238 | 36131 ft | 435 kts | 303° |
| 2026-05-05 17:58 | 31.31635 | 29.74533 | 36110 ft | 435 kts | 303° |
| 2026-05-05 17:59 | 31.35175 | 29.68858 | 36103 ft | 434 kts | 303° |
| 2026-05-05 17:59 | 31.38729 | 29.63139 | 36104 ft | 434 kts | 303° |
| 2026-05-05 18:00 | 31.42271 | 29.57428 | 36103 ft | 433 kts | 303° |
| 2026-05-05 18:00 | 31.45808 | 29.51720 | 36106 ft | 433 kts | 303° |
| 2026-05-05 18:01 | 31.49345 | 29.46003 | 36106 ft | 432 kts | 303° |
| 2026-05-05 18:01 | 31.52871 | 29.40294 | 36104 ft | 432 kts | 303° |
| 2026-05-05 18:02 | 31.56392 | 29.34586 | 36107 ft | 432 kts | 303° |
| 2026-05-05 18:02 | 31.59886 | 29.28909 | 36106 ft | 432 kts | 303° |
| 2026-05-05 18:03 | 31.63386 | 29.23172 | 36105 ft | 432 kts | 303° |
| 2026-05-05 18:03 | 31.66878 | 29.17436 | 36107 ft | 432 kts | 303° |
| 2026-05-05 18:04 | 31.70379 | 29.11681 | 36116 ft | 433 kts | 303° |
| 2026-05-05 18:04 | 31.73883 | 29.05916 | 36109 ft | 433 kts | 303° |
| 2026-05-05 18:05 | 31.77396 | 29.00156 | 36114 ft | 434 kts | 303° |
| 2026-05-05 18:05 | 31.80831 | 28.94519 | 36110 ft | 434 kts | 304° |
| 2026-05-05 18:06 | 31.84325 | 28.88776 | 36118 ft | 435 kts | 303° |
| 2026-05-05 18:06 | 31.87842 | 28.82984 | 36107 ft | 435 kts | 303° |
| 2026-05-05 18:07 | 31.91359 | 28.77183 | 36113 ft | 435 kts | 303° |
| 2026-05-05 18:07 | 31.94875 | 28.71373 | 36114 ft | 435 kts | 303° |
| 2026-05-05 18:08 | 31.98389 | 28.65559 | 36109 ft | 435 kts | 304° |
| 2026-05-05 18:08 | 32.01897 | 28.59746 | 36111 ft | 435 kts | 304° |
| 2026-05-05 18:09 | 32.05379 | 28.53968 | 36110 ft | 435 kts | 304° |
| 2026-05-05 18:09 | 32.08887 | 28.48136 | 36137 ft | 435 kts | 304° |
| 2026-05-05 18:10 | 32.12394 | 28.42299 | 36118 ft | 436 kts | 304° |
| 2026-05-05 18:10 | 32.15892 | 28.36467 | 36104 ft | 436 kts | 304° |
| 2026-05-05 18:11 | 32.19394 | 28.30618 | 36111 ft | 435 kts | 304° |
| 2026-05-05 18:11 | 32.22865 | 28.24813 | 36109 ft | 435 kts | 304° |
| 2026-05-05 18:12 | 32.26353 | 28.18971 | 36112 ft | 435 kts | 304° |
| 2026-05-05 18:12 | 32.29835 | 28.13129 | 36112 ft | 434 kts | 304° |
| 2026-05-05 18:13 | 32.33311 | 28.07288 | 36109 ft | 434 kts | 304° |
| 2026-05-05 18:13 | 32.36788 | 28.01438 | 36108 ft | 434 kts | 304° |
| 2026-05-05 18:14 | 32.40156 | 27.95762 | 36111 ft | 434 kts | 304° |
| 2026-05-05 18:14 | 32.43623 | 27.89909 | 36110 ft | 434 kts | 304° |
| 2026-05-05 18:15 | 32.47090 | 27.84048 | 36109 ft | 434 kts | 304° |
| 2026-05-05 18:15 | 32.50552 | 27.78187 | 36121 ft | 434 kts | 304° |
| 2026-05-05 18:16 | 32.54019 | 27.72306 | 36111 ft | 435 kts | 304° |
| 2026-05-05 18:16 | 32.57480 | 27.66428 | 36109 ft | 435 kts | 304° |
| 2026-05-05 18:17 | 32.60940 | 27.60543 | 36107 ft | 435 kts | 304° |
| 2026-05-05 18:17 | 32.64378 | 27.54684 | 36106 ft | 435 kts | 304° |
| 2026-05-05 18:18 | 32.67832 | 27.48788 | 36107 ft | 435 kts | 304° |
| 2026-05-05 18:18 | 32.71287 | 27.42884 | 36107 ft | 435 kts | 304° |
| 2026-05-05 18:19 | 32.74734 | 27.36986 | 36103 ft | 435 kts | 304° |
| 2026-05-05 18:19 | 32.78182 | 27.31075 | 36105 ft | 434 kts | 304° |
| 2026-05-05 18:20 | 32.81601 | 27.25204 | 36106 ft | 434 kts | 304° |
| 2026-05-05 18:20 | 32.85034 | 27.19298 | 36107 ft | 434 kts | 304° |